KDBN/DBN METAR and TAF weather

Enter ICAO airport designator
Station Type Date Time Source
KDBN METAR 2022/08/13 12:50 UTC NOAA

KDBN 131250Z AUTO 08007KT 10SM OVC012 23/20 A3010 RMK AO2


Station Type Date Time Source
KDBN Decoded METAR 2022/08/13 12:50 UTC NOAA

Dublin, W H 'Bud' Barron Airport, GA, United States (KDBN) 32-33-52N 082-59-06W
Aug 13, 2022 - 08:50 AM EDT / 2022.08.13 1250 UTC
Wind: from the E (080 degrees) at 8 MPH (7 KT):0
Visibility: 10 mile(s):0
Sky conditions: overcast
Temperature: 73 F (23 C)
Dew Point: 68 F (20 C)
Relative Humidity: 83%
Pressure (altimeter): 30.1 in. Hg (1019 hPa)
ob: KDBN 131250Z AUTO 08007KT 10SM OVC012 23/20 A3010 RMK AO2
cycle: 13

Station Type Date Time Source
KDBN TAF UTC NOAA

Error!

Example: see airport list